sensor_id;sensor_type;location;lat;lon;timestamp;pressure;altitude;pressure_sealevel;temperature;humidity
80568;BME280;69922;45.656;25.586;2023-07-20T00:00:36;94659.87;;;20.47;69.22
80568;BME280;69922;45.656;25.586;2023-07-20T00:02:08;94656.63;;;20.48;69.24
80568;BME280;69922;45.656;25.586;2023-07-20T00:03:30;94651.39;;;20.49;69.30
80568;BME280;69922;45.656;25.586;2023-07-20T00:04:34;94651.23;;;20.48;69.18
80568;BME280;69922;45.656;25.586;2023-07-20T00:05:39;94654.64;;;20.47;69.53
80568;BME280;69922;45.656;25.586;2023-07-20T00:06:42;94656.23;;;20.44;69.45
80568;BME280;69922;45.656;25.586;2023-07-20T00:07:46;94657.97;;;20.40;69.68
80568;BME280;69922;45.656;25.586;2023-07-20T00:08:50;94657.74;;;20.36;69.74
80568;BME280;69922;45.656;25.586;2023-07-20T00:09:54;94660.04;;;20.31;69.87
80568;BME280;69922;45.656;25.586;2023-07-20T00:10:57;94658.69;;;20.27;70.06
80568;BME280;69922;45.656;25.586;2023-07-20T00:12:02;94658.70;;;20.22;70.08
80568;BME280;69922;45.656;25.586;2023-07-20T00:13:05;94660.52;;;20.18;70.27
80568;BME280;69922;45.656;25.586;2023-07-20T00:14:09;94658.85;;;20.16;70.18
80568;BME280;69922;45.656;25.586;2023-07-20T00:15:13;94652.34;;;20.13;70.26
80568;BME280;69922;45.656;25.586;2023-07-20T00:16:16;94655.73;;;20.10;70.27
80568;BME280;69922;45.656;25.586;2023-07-20T00:17:20;94654.86;;;20.09;70.53
80568;BME280;69922;45.656;25.586;2023-07-20T00:18:23;94654.71;;;20.08;70.38
80568;BME280;69922;45.656;25.586;2023-07-20T00:19:27;94658.27;;;20.06;70.53
80568;BME280;69922;45.656;25.586;2023-07-20T00:20:31;94653.84;;;20.06;70.52
80568;BME280;69922;45.656;25.586;2023-07-20T00:21:34;94653.37;;;20.06;70.70
80568;BME280;69922;45.656;25.586;2023-07-20T00:22:37;94653.99;;;20.04;70.60
80568;BME280;69922;45.656;25.586;2023-07-20T00:23:40;94653.11;;;20.04;70.88
80568;BME280;69922;45.656;25.586;2023-07-20T00:24:44;94653.04;;;20.03;70.80
80568;BME280;69922;45.656;25.586;2023-07-20T00:25:47;94650.75;;;20.01;70.95
80568;BME280;69922;45.656;25.586;2023-07-20T00:26:51;94652.16;;;20.00;71.13
80568;BME280;69922;45.656;25.586;2023-07-20T00:27:55;94650.98;;;19.98;71.28
80568;BME280;69922;45.656;25.586;2023-07-20T00:28:58;94654.23;;;19.96;71.32
80568;BME280;69922;45.656;25.586;2023-07-20T00:30:03;94651.05;;;19.92;71.59
80568;BME280;69922;45.656;25.586;2023-07-20T00:31:06;94649.95;;;19.88;71.63
80568;BME280;69922;45.656;25.586;2023-07-20T00:32:10;94648.75;;;19.84;71.95
80568;BME280;69922;45.656;25.586;2023-07-20T00:33:17;94649.39;;;19.80;71.91
80568;BME280;69922;45.656;25.586;2023-07-20T00:34:21;94650.56;;;19.76;72.24
80568;BME280;69922;45.656;25.586;2023-07-20T00:35:24;94651.59;;;19.72;72.22
80568;BME280;69922;45.656;25.586;2023-07-20T00:36:28;94651.90;;;19.67;72.39
80568;BME280;69922;45.656;25.586;2023-07-20T00:37:31;94657.51;;;19.64;72.40
80568;BME280;69922;45.656;25.586;2023-07-20T00:38:34;94658.06;;;19.59;72.97
80568;BME280;69922;45.656;25.586;2023-07-20T00:39:37;94660.73;;;19.56;72.87
80568;BME280;69922;45.656;25.586;2023-07-20T00:40:42;94661.98;;;19.52;73.08
80568;BME280;69922;45.656;25.586;2023-07-20T00:41:46;94657.70;;;19.49;73.17
80568;BME280;69922;45.656;25.586;2023-07-20T00:42:49;94659.21;;;19.47;73.25
80568;BME280;69922;45.656;25.586;2023-07-20T00:43:53;94658.09;;;19.44;73.32
80568;BME280;69922;45.656;25.586;2023-07-20T00:44:56;94659.13;;;19.41;73.38
80568;BME280;69922;45.656;25.586;2023-07-20T00:46:00;94663.85;;;19.38;73.36
80568;BME280;69922;45.656;25.586;2023-07-20T00:47:04;94657.20;;;19.37;73.69
80568;BME280;69922;45.656;25.586;2023-07-20T00:48:08;94654.10;;;19.35;73.78
80568;BME280;69922;45.656;25.586;2023-07-20T00:49:12;94653.78;;;19.34;74.02
80568;BME280;69922;45.656;25.586;2023-07-20T00:50:15;94652.04;;;19.31;73.86
80568;BME280;69922;45.656;25.586;2023-07-20T00:51:20;94651.25;;;19.29;73.54
80568;BME280;69922;45.656;25.586;2023-07-20T00:52:27;94650.77;;;19.30;73.66
80568;BME280;69922;45.656;25.586;2023-07-20T00:53:32;94657.20;;;19.33;73.77
80568;BME280;69922;45.656;25.586;2023-07-20T00:54:35;94660.36;;;19.34;73.90
80568;BME280;69922;45.656;25.586;2023-07-20T00:55:40;94663.69;;;19.35;74.00
80568;BME280;69922;45.656;25.586;2023-07-20T00:56:44;94663.20;;;19.33;74.02
80568;BME280;69922;45.656;25.586;2023-07-20T00:57:49;94658.29;;;19.31;74.02
80568;BME280;69922;45.656;25.586;2023-07-20T00:58:53;94657.59;;;19.31;74.20
80568;BME280;69922;45.656;25.586;2023-07-20T00:59:57;94654.66;;;19.29;74.19
80568;BME280;69922;45.656;25.586;2023-07-20T01:01:01;94649.90;;;19.28;73.95
80568;BME280;69922;45.656;25.586;2023-07-20T01:02:05;94651.61;;;19.27;73.75
80568;BME280;69922;45.656;25.586;2023-07-20T01:03:09;94655.88;;;19.26;73.86
80568;BME280;69922;45.656;25.586;2023-07-20T01:04:13;94656.81;;;19.24;74.16
80568;BME280;69922;45.656;25.586;2023-07-20T01:05:17;94656.73;;;19.24;74.22
80568;BME280;69922;45.656;25.586;2023-07-20T01:06:26;94656.57;;;19.24;74.05
80568;BME280;69922;45.656;25.586;2023-07-20T01:07:36;94657.85;;;19.24;74.37
80568;BME280;69922;45.656;25.586;2023-07-20T01:08:50;94657.60;;;19.23;74.19
80568;BME280;69922;45.656;25.586;2023-07-20T01:10:06;94653.88;;;19.20;74.10
80568;BME280;69922;45.656;25.586;2023-07-20T01:11:16;94652.52;;;19.18;74.02
80568;BME280;69922;45.656;25.586;2023-07-20T01:12:27;94650.92;;;19.16;74.09
80568;BME280;69922;45.656;25.586;2023-07-20T01:13:34;94653.70;;;19.14;74.07
80568;BME280;69922;45.656;25.586;2023-07-20T01:14:39;94653.13;;;19.14;74.42
80568;BME280;69922;45.656;25.586;2023-07-20T01:15:43;94649.11;;;19.15;74.17
80568;BME280;69922;45.656;25.586;2023-07-20T01:16:52;94648.88;;;19.13;74.11
80568;BME280;69922;45.656;25.586;2023-07-20T01:17:55;94646.89;;;19.12;74.07
80568;BME280;69922;45.656;25.586;2023-07-20T01:19:01;94653.52;;;19.10;74.03
80568;BME280;69922;45.656;25.586;2023-07-20T01:20:07;94652.57;;;19.08;74.16
80568;BME280;69922;45.656;25.586;2023-07-20T01:21:21;94651.44;;;19.06;74.15
80568;BME280;69922;45.656;25.586;2023-07-20T01:22:43;94649.79;;;19.05;74.25
80568;BME280;69922;45.656;25.586;2023-07-20T01:24:14;94649.61;;;19.05;74.32
80568;BME280;69922;45.656;25.586;2023-07-20T01:25:37;94649.39;;;19.06;74.35
80568;BME280;69922;45.656;25.586;2023-07-20T01:26:53;94647.09;;;19.06;74.36
80568;BME280;69922;45.656;25.586;2023-07-20T01:28:33;94645.92;;;19.07;74.47
80568;BME280;69922;45.656;25.586;2023-07-20T01:30:03;94648.61;;;19.07;74.31
80568;BME280;69922;45.656;25.586;2023-07-20T01:31:20;94652.17;;;19.08;74.29
80568;BME280;69922;45.656;25.586;2023-07-20T01:32:26;94649.09;;;19.08;74.21
80568;BME280;69922;45.656;25.586;2023-07-20T01:33:32;94650.59;;;19.08;74.53
80568;BME280;69922;45.656;25.586;2023-07-20T01:34:39;94647.91;;;19.10;74.71
80568;BME280;69922;45.656;25.586;2023-07-20T01:35:46;94651.95;;;19.12;74.73
80568;BME280;69922;45.656;25.586;2023-07-20T01:36:53;94659.39;;;19.14;74.87
80568;BME280;69922;45.656;25.586;2023-07-20T01:37:58;94665.95;;;19.14;75.02
80568;BME280;69922;45.656;25.586;2023-07-20T01:39:03;94671.47;;;19.13;74.95
80568;BME280;69922;45.656;25.586;2023-07-20T01:40:10;94677.96;;;19.12;75.54
80568;BME280;69922;45.656;25.586;2023-07-20T01:41:15;94678.42;;;19.10;75.28
80568;BME280;69922;45.656;25.586;2023-07-20T01:42:19;94679.61;;;19.07;75.74
80568;BME280;69922;45.656;25.586;2023-07-20T01:43:23;94683.48;;;19.06;75.69
80568;BME280;69922;45.656;25.586;2023-07-20T01:44:27;94680.45;;;19.03;75.71
80568;BME280;69922;45.656;25.586;2023-07-20T01:45:30;94683.05;;;19.01;76.00
80568;BME280;69922;45.656;25.586;2023-07-20T01:46:35;94685.02;;;18.99;75.98
80568;BME280;69922;45.656;25.586;2023-07-20T01:47:38;94683.90;;;18.97;75.77
80568;BME280;69922;45.656;25.586;2023-07-20T01:48:42;94681.05;;;18.96;75.52
80568;BME280;69922;45.656;25.586;2023-07-20T01:49:46;94682.15;;;18.95;75.39
80568;BME280;69922;45.656;25.586;2023-07-20T01:50:49;94686.27;;;18.95;75.54
80568;BME280;69922;45.656;25.586;2023-07-20T01:51:52;94690.29;;;18.96;75.51
80568;BME280;69922;45.656;25.586;2023-07-20T01:52:55;94691.64;;;18.96;75.63
80568;BME280;69922;45.656;25.586;2023-07-20T01:54:00;94694.26;;;18.97;76.24
80568;BME280;69922;45.656;25.586;2023-07-20T01:55:07;94698.60;;;18.96;76.32
80568;BME280;69922;45.656;25.586;2023-07-20T01:56:10;94705.15;;;18.95;76.22
80568;BME280;69922;45.656;25.586;2023-07-20T01:57:15;94709.80;;;18.95;75.92
80568;BME280;69922;45.656;25.586;2023-07-20T01:58:19;94709.33;;;18.94;76.31
80568;BME280;69922;45.656;25.586;2023-07-20T01:59:22;94707.73;;;18.93;75.98
80568;BME280;69922;45.656;25.586;2023-07-20T02:00:26;94709.65;;;18.93;76.14
80568;BME280;69922;45.656;25.586;2023-07-20T02:01:29;94709.02;;;18.93;76.23
80568;BME280;69922;45.656;25.586;2023-07-20T02:02:33;94711.23;;;18.94;76.06
80568;BME280;69922;45.656;25.586;2023-07-20T02:03:36;94712.02;;;18.95;76.01
80568;BME280;69922;45.656;25.586;2023-07-20T02:04:39;94714.80;;;18.97;75.63
80568;BME280;69922;45.656;25.586;2023-07-20T02:05:44;94708.73;;;18.98;75.62
80568;BME280;69922;45.656;25.586;2023-07-20T02:06:47;94703.20;;;19.00;75.86
80568;BME280;69922;45.656;25.586;2023-07-20T02:07:51;94700.84;;;19.02;75.80
80568;BME280;69922;45.656;25.586;2023-07-20T02:08:54;94697.30;;;19.04;75.79
80568;BME280;69922;45.656;25.586;2023-07-20T02:09:58;94700.71;;;19.07;75.58
80568;BME280;69922;45.656;25.586;2023-07-20T02:11:01;94705.21;;;19.08;75.54
80568;BME280;69922;45.656;25.586;2023-07-20T02:12:10;94701.42;;;19.08;75.38
80568;BME280;69922;45.656;25.586;2023-07-20T02:13:13;94704.29;;;19.09;75.57
80568;BME280;69922;45.656;25.586;2023-07-20T02:14:16;94702.16;;;19.12;75.68
80568;BME280;69922;45.656;25.586;2023-07-20T02:15:20;94702.64;;;19.15;75.40
80568;BME280;69922;45.656;25.586;2023-07-20T02:16:24;94700.34;;;19.13;75.32
80568;BME280;69922;45.656;25.586;2023-07-20T02:17:29;94698.83;;;19.14;75.40
80568;BME280;69922;45.656;25.586;2023-07-20T02:18:33;94693.86;;;19.14;75.26
80568;BME280;69922;45.656;25.586;2023-07-20T02:19:37;94693.70;;;19.14;75.43
80568;BME280;69922;45.656;25.586;2023-07-20T02:20:42;94692.20;;;19.14;75.45
80568;BME280;69922;45.656;25.586;2023-07-20T02:21:46;94696.40;;;19.16;75.49
80568;BME280;69922;45.656;25.586;2023-07-20T02:22:49;94700.60;;;19.17;75.21
80568;BME280;69922;45.656;25.586;2023-07-20T02:23:53;94703.85;;;19.17;75.24
80568;BME280;69922;45.656;25.586;2023-07-20T02:24:57;94703.44;;;19.16;75.24
80568;BME280;69922;45.656;25.586;2023-07-20T02:26:00;94700.12;;;19.15;75.24
80568;BME280;69922;45.656;25.586;2023-07-20T02:27:05;94705.27;;;19.17;75.67
80568;BME280;69922;45.656;25.586;2023-07-20T02:28:14;94704.70;;;19.16;75.44
80568;BME280;69922;45.656;25.586;2023-07-20T02:29:17;94702.40;;;19.14;75.34
80568;BME280;69922;45.656;25.586;2023-07-20T02:30:21;94703.34;;;19.13;75.47
80568;BME280;69922;45.656;25.586;2023-07-20T02:31:24;94706.59;;;19.12;75.32
80568;BME280;69922;45.656;25.586;2023-07-20T02:32:31;94708.95;;;19.12;75.48
80568;BME280;69922;45.656;25.586;2023-07-20T02:33:35;94712.52;;;19.11;75.42
80568;BME280;69922;45.656;25.586;2023-07-20T02:34:38;94717.26;;;19.12;75.48
80568;BME280;69922;45.656;25.586;2023-07-20T02:35:41;94716.70;;;19.12;75.53
80568;BME280;69922;45.656;25.586;2023-07-20T02:36:45;94714.26;;;19.14;75.62
80568;BME280;69922;45.656;25.586;2023-07-20T02:37:50;94711.75;;;19.17;75.46
80568;BME280;69922;45.656;25.586;2023-07-20T02:38:54;94712.46;;;19.17;75.34
80568;BME280;69922;45.656;25.586;2023-07-20T02:39:58;94711.27;;;19.17;75.32
80568;BME280;69922;45.656;25.586;2023-07-20T02:41:01;94711.36;;;19.18;75.38
80568;BME280;69922;45.656;25.586;2023-07-20T02:42:07;94711.60;;;19.18;75.41
80568;BME280;69922;45.656;25.586;2023-07-20T02:43:13;94710.58;;;19.20;75.23
80568;BME280;69922;45.656;25.586;2023-07-20T02:44:17;94709.39;;;19.19;75.35
80568;BME280;69922;45.656;25.586;2023-07-20T02:45:20;94704.64;;;19.19;75.26
80568;BME280;69922;45.656;25.586;2023-07-20T02:46:24;94706.14;;;19.19;75.45
80568;BME280;69922;45.656;25.586;2023-07-20T02:47:28;94699.89;;;19.19;75.35
80568;BME280;69922;45.656;25.586;2023-07-20T02:48:32;94699.49;;;19.17;75.21
80568;BME280;69922;45.656;25.586;2023-07-20T02:49:35;94693.64;;;19.16;75.22
80568;BME280;69922;45.656;25.586;2023-07-20T02:50:39;94692.36;;;19.15;75.27
80568;BME280;69922;45.656;25.586;2023-07-20T02:51:42;94693.88;;;19.15;75.27
80568;BME280;69922;45.656;25.586;2023-07-20T02:52:45;94692.52;;;19.15;75.37
80568;BME280;69922;45.656;25.586;2023-07-20T02:53:49;94691.58;;;19.16;75.33
80568;BME280;69922;45.656;25.586;2023-07-20T02:54:53;94692.94;;;19.17;75.31
80568;BME280;69922;45.656;25.586;2023-07-20T02:55:56;94692.15;;;19.18;75.38
80568;BME280;69922;45.656;25.586;2023-07-20T02:57:00;94689.31;;;19.21;75.69
80568;BME280;69922;45.656;25.586;2023-07-20T02:58:04;94683.45;;;19.23;75.40
80568;BME280;69922;45.656;25.586;2023-07-20T02:59:08;94682.66;;;19.25;75.23
80568;BME280;69922;45.656;25.586;2023-07-20T03:00:15;94676.91;;;19.26;75.17
80568;BME280;69922;45.656;25.586;2023-07-20T03:01:19;94676.60;;;19.27;75.30
80568;BME280;69922;45.656;25.586;2023-07-20T03:02:23;94673.92;;;19.27;75.10
80568;BME280;69922;45.656;25.586;2023-07-20T03:03:26;94670.55;;;19.29;75.13
80568;BME280;69922;45.656;25.586;2023-07-20T03:04:30;94671.27;;;19.31;75.12
80568;BME280;69922;45.656;25.586;2023-07-20T03:05:34;94667.08;;;19.34;75.19
80568;BME280;69922;45.656;25.586;2023-07-20T03:06:37;94663.67;;;19.36;75.17
80568;BME280;69922;45.656;25.586;2023-07-20T03:07:41;94664.81;;;19.39;74.91
80568;BME280;69922;45.656;25.586;2023-07-20T03:08:47;94665.61;;;19.42;74.87
80568;BME280;69922;45.656;25.586;2023-07-20T03:09:51;94663.55;;;19.45;75.00
80568;BME280;69922;45.656;25.586;2023-07-20T03:10:55;94664.12;;;19.47;74.68
80568;BME280;69922;45.656;25.586;2023-07-20T03:11:58;94660.87;;;19.49;74.71
80568;BME280;69922;45.656;25.586;2023-07-20T03:13:01;94663.65;;;19.50;74.65
80568;BME280;69922;45.656;25.586;2023-07-20T03:14:05;94670.70;;;19.51;74.68
80568;BME280;69922;45.656;25.586;2023-07-20T03:15:11;94671.09;;;19.53;74.57
80568;BME280;69922;45.656;25.586;2023-07-20T03:16:17;94673.86;;;19.54;74.62
80568;BME280;69922;45.656;25.586;2023-07-20T03:17:22;94675.52;;;19.55;74.69
80568;BME280;69922;45.656;25.586;2023-07-20T03:18:25;94679.42;;;19.58;74.61
80568;BME280;69922;45.656;25.586;2023-07-20T03:19:30;94676.66;;;19.62;74.59
80568;BME280;69922;45.656;25.586;2023-07-20T03:20:34;94673.66;;;19.67;74.38
80568;BME280;69922;45.656;25.586;2023-07-20T03:21:39;94673.67;;;19.72;74.28
80568;BME280;69922;45.656;25.586;2023-07-20T03:22:52;94676.77;;;19.75;74.02
80568;BME280;69922;45.656;25.586;2023-07-20T03:23:57;94674.95;;;19.77;73.88
80568;BME280;69922;45.656;25.586;2023-07-20T03:25:00;94675.10;;;19.78;73.82
80568;BME280;69922;45.656;25.586;2023-07-20T03:26:03;94674.70;;;19.79;73.64
80568;BME280;69922;45.656;25.586;2023-07-20T03:27:07;94675.66;;;19.82;73.59
80568;BME280;69922;45.656;25.586;2023-07-20T03:28:12;94674.95;;;19.85;73.61
80568;BME280;69922;45.656;25.586;2023-07-20T03:29:15;94671.56;;;19.86;73.51
80568;BME280;69922;45.656;25.586;2023-07-20T03:30:19;94669.65;;;19.86;73.41
80568;BME280;69922;45.656;25.586;2023-07-20T03:31:24;94667.03;;;19.84;73.52
80568;BME280;69922;45.656;25.586;2023-07-20T03:32:28;94668.70;;;19.83;73.39
80568;BME280;69922;45.656;25.586;2023-07-20T03:33:32;94668.63;;;19.83;73.39
80568;BME280;69922;45.656;25.586;2023-07-20T03:34:38;94667.59;;;19.80;73.72
80568;BME280;69922;45.656;25.586;2023-07-20T03:35:44;94662.84;;;19.77;73.47
80568;BME280;69922;45.656;25.586;2023-07-20T03:36:47;94664.89;;;19.76;73.43
80568;BME280;69922;45.656;25.586;2023-07-20T03:37:51;94661.89;;;19.78;73.53
80568;BME280;69922;45.656;25.586;2023-07-20T03:38:55;94663.08;;;19.81;73.33
80568;BME280;69922;45.656;25.586;2023-07-20T03:39:58;94664.89;;;19.83;73.26
80568;BME280;69922;45.656;25.586;2023-07-20T03:41:01;94664.74;;;19.87;73.34
80568;BME280;69922;45.656;25.586;2023-07-20T03:42:06;94668.48;;;19.91;73.30
80568;BME280;69922;45.656;25.586;2023-07-20T03:43:10;94668.15;;;19.93;73.15
80568;BME280;69922;45.656;25.586;2023-07-20T03:44:14;94672.59;;;19.93;73.05
80568;BME280;69922;45.656;25.586;2023-07-20T03:45:17;94678.92;;;19.91;73.50
80568;BME280;69922;45.656;25.586;2023-07-20T03:46:21;94677.27;;;19.88;73.45
80568;BME280;69922;45.656;25.586;2023-07-20T03:47:25;94684.69;;;19.85;73.49
80568;BME280;69922;45.656;25.586;2023-07-20T03:48:28;94683.19;;;19.81;73.91
80568;BME280;69922;45.656;25.586;2023-07-20T03:49:32;94686.02;;;19.78;74.14
80568;BME280;69922;45.656;25.586;2023-07-20T03:50:35;94688.15;;;19.74;74.11
80568;BME280;69922;45.656;25.586;2023-07-20T03:51:38;94686.80;;;19.71;74.03
80568;BME280;69922;45.656;25.586;2023-07-20T03:52:41;94686.80;;;19.70;74.42
80568;BME280;69922;45.656;25.586;2023-07-20T03:53:45;94687.75;;;19.69;74.16
80568;BME280;69922;45.656;25.586;2023-07-20T03:54:48;94687.98;;;19.69;74.20
80568;BME280;69922;45.656;25.586;2023-07-20T03:55:52;94687.84;;;19.69;74.09
80568;BME280;69922;45.656;25.586;2023-07-20T03:56:56;94687.52;;;19.71;74.08
80568;BME280;69922;45.656;25.586;2023-07-20T03:57:59;94694.17;;;19.73;74.11
80568;BME280;69922;45.656;25.586;2023-07-20T03:59:03;94697.50;;;19.75;74.12
80568;BME280;69922;45.656;25.586;2023-07-20T04:00:10;94699.15;;;19.75;74.22
80568;BME280;69922;45.656;25.586;2023-07-20T04:01:13;94703.12;;;19.76;74.20
80568;BME280;69922;45.656;25.586;2023-07-20T04:02:17;94700.50;;;19.76;74.45
80568;BME280;69922;45.656;25.586;2023-07-20T04:03:21;94701.84;;;19.75;74.37
80568;BME280;69922;45.656;25.586;2023-07-20T04:04:28;94694.25;;;19.74;74.28
80568;BME280;69922;45.656;25.586;2023-07-20T04:05:32;94694.80;;;19.74;74.33
80568;BME280;69922;45.656;25.586;2023-07-20T04:06:35;94689.02;;;19.74;74.18
80568;BME280;69922;45.656;25.586;2023-07-20T04:07:39;94689.42;;;19.76;74.15
80568;BME280;69922;45.656;25.586;2023-07-20T04:08:43;94686.04;;;19.79;73.89
80568;BME280;69922;45.656;25.586;2023-07-20T04:09:47;94689.84;;;19.81;74.08
80568;BME280;69922;45.656;25.586;2023-07-20T04:10:51;94689.75;;;19.82;74.11
80568;BME280;69922;45.656;25.586;2023-07-20T04:11:54;94695.30;;;19.83;74.11
80568;BME280;69922;45.656;25.586;2023-07-20T04:12:58;94693.00;;;19.85;73.70
80568;BME280;69922;45.656;25.586;2023-07-20T04:14:01;94697.91;;;19.88;73.70
80568;BME280;69922;45.656;25.586;2023-07-20T04:15:09;94698.48;;;19.92;73.76
80568;BME280;69922;45.656;25.586;2023-07-20T04:16:15;94701.09;;;19.96;73.42
80568;BME280;69922;45.656;25.586;2023-07-20T04:17:19;94699.59;;;20.00;73.37
80568;BME280;69922;45.656;25.586;2023-07-20T04:18:23;94700.39;;;20.04;73.30
80568;BME280;69922;45.656;25.586;2023-07-20T04:19:26;94695.17;;;20.08;73.16
80568;BME280;69922;45.656;25.586;2023-07-20T04:20:29;94693.45;;;20.14;72.93
80568;BME280;69922;45.656;25.586;2023-07-20T04:21:39;94691.00;;;20.20;72.78
80568;BME280;69922;45.656;25.586;2023-07-20T04:22:42;94685.15;;;20.28;72.58
80568;BME280;69922;45.656;25.586;2023-07-20T04:23:46;94686.27;;;20.34;72.60
80568;BME280;69922;45.656;25.586;2023-07-20T04:24:50;94686.89;;;20.40;72.37
80568;BME280;69922;45.656;25.586;2023-07-20T04:25:54;94686.66;;;20.45;72.10
80568;BME280;69922;45.656;25.586;2023-07-20T04:26:57;94689.41;;;20.52;71.72
80568;BME280;69922;45.656;25.586;2023-07-20T04:28:01;94686.01;;;20.57;71.60
80568;BME280;69922;45.656;25.586;2023-07-20T04:29:04;94687.98;;;20.61;71.29
80568;BME280;69922;45.656;25.586;2023-07-20T04:30:11;94690.43;;;20.65;71.10
80568;BME280;69922;45.656;25.586;2023-07-20T04:31:15;94683.67;;;20.70;70.98
80568;BME280;69922;45.656;25.586;2023-07-20T04:32:19;94681.85;;;20.74;70.96
80568;BME280;69922;45.656;25.586;2023-07-20T04:33:23;94676.62;;;20.80;70.87
80568;BME280;69922;45.656;25.586;2023-07-20T04:34:26;94680.08;;;20.89;70.67
80568;BME280;69922;45.656;25.586;2023-07-20T04:35:50;94677.61;;;20.99;70.68
80568;BME280;69922;45.656;25.586;2023-07-20T04:36:54;94683.67;;;21.14;70.28
80568;BME280;69922;45.656;25.586;2023-07-20T04:37:57;94684.52;;;21.22;69.90
80568;BME280;69922;45.656;25.586;2023-07-20T04:39:01;94685.77;;;21.29;69.51
80568;BME280;69922;45.656;25.586;2023-07-20T04:40:08;94687.58;;;21.33;69.24
80568;BME280;69922;45.656;25.586;2023-07-20T04:41:12;94685.34;;;21.37;69.11
80568;BME280;69922;45.656;25.586;2023-07-20T04:42:15;94685.96;;;21.40;69.01
80568;BME280;69922;45.656;25.586;2023-07-20T04:43:19;94677.61;;;21.44;68.84
80568;BME280;69922;45.656;25.586;2023-07-20T04:44:22;94681.23;;;21.50;68.71
80568;BME280;69922;45.656;25.586;2023-07-20T04:45:26;94674.23;;;21.53;68.40
80568;BME280;69922;45.656;25.586;2023-07-20T04:46:29;94672.39;;;21.58;68.56
80568;BME280;69922;45.656;25.586;2023-07-20T04:47:33;94672.27;;;21.65;68.53
80568;BME280;69922;45.656;25.586;2023-07-20T04:48:36;94671.91;;;21.72;68.62
80568;BME280;69922;45.656;25.586;2023-07-20T04:49:45;94678.80;;;21.81;68.36
80568;BME280;69922;45.656;25.586;2023-07-20T04:50:48;94677.02;;;21.87;68.04
80568;BME280;69922;45.656;25.586;2023-07-20T04:51:52;94675.85;;;21.94;67.96
80568;BME280;69922;45.656;25.586;2023-07-20T04:52:56;94679.38;;;22.00;67.74
80568;BME280;69922;45.656;25.586;2023-07-20T04:54:00;94680.86;;;22.05;67.32
80568;BME280;69922;45.656;25.586;2023-07-20T04:55:13;94679.96;;;22.08;67.13
80568;BME280;69922;45.656;25.586;2023-07-20T04:56:17;94680.65;;;22.11;67.13
80568;BME280;69922;45.656;25.586;2023-07-20T04:57:25;94678.02;;;22.15;67.05
80568;BME280;69922;45.656;25.586;2023-07-20T04:58:29;94682.83;;;22.20;66.96
80568;BME280;69922;45.656;25.586;2023-07-20T04:59:34;94684.30;;;22.24;66.69
80568;BME280;69922;45.656;25.586;2023-07-20T05:00:39;94682.30;;;22.25;66.45
80568;BME280;69922;45.656;25.586;2023-07-20T05:01:42;94683.02;;;22.26;66.30
80568;BME280;69922;45.656;25.586;2023-07-20T05:02:45;94680.81;;;22.23;66.28
80568;BME280;69922;45.656;25.586;2023-07-20T05:03:51;94684.00;;;22.22;66.45
80568;BME280;69922;45.656;25.586;2023-07-20T05:04:56;94682.48;;;22.22;66.50
80568;BME280;69922;45.656;25.586;2023-07-20T05:06:00;94682.89;;;22.20;66.54
80568;BME280;69922;45.656;25.586;2023-07-20T05:07:06;94687.98;;;22.17;66.32
80568;BME280;69922;45.656;25.586;2023-07-20T05:08:09;94688.42;;;22.13;66.47
80568;BME280;69922;45.656;25.586;2023-07-20T05:09:13;94687.64;;;22.11;66.57
80568;BME280;69922;45.656;25.586;2023-07-20T05:10:17;94687.67;;;22.09;66.66
80568;BME280;69922;45.656;25.586;2023-07-20T05:11:21;94686.30;;;22.09;66.57
80568;BME280;69922;45.656;25.586;2023-07-20T05:12:25;94685.22;;;22.06;66.69
80568;BME280;69922;45.656;25.586;2023-07-20T05:13:29;94684.67;;;22.05;66.75
80568;BME280;69922;45.656;25.586;2023-07-20T05:14:32;94684.67;;;22.05;66.75
80568;BME280;69922;45.656;25.586;2023-07-20T05:15:35;94685.01;;;22.04;66.83
80568;BME280;69922;45.656;25.586;2023-07-20T05:16:38;94686.20;;;22.02;67.02
80568;BME280;69922;45.656;25.586;2023-07-20T05:17:41;94686.44;;;22.02;67.01
80568;BME280;69922;45.656;25.586;2023-07-20T05:18:46;94686.35;;;22.03;67.01
80568;BME280;69922;45.656;25.586;2023-07-20T05:19:50;94684.92;;;22.02;67.16
80568;BME280;69922;45.656;25.586;2023-07-20T05:20:53;94683.42;;;22.00;67.14
80568;BME280;69922;45.656;25.586;2023-07-20T05:21:58;94684.37;;;22.02;67.18
80568;BME280;69922;45.656;25.586;2023-07-20T05:23:01;94688.09;;;22.06;66.90
80568;BME280;69922;45.656;25.586;2023-07-20T05:24:08;94688.61;;;22.09;66.75
80568;BME280;69922;45.656;25.586;2023-07-20T05:25:14;94687.61;;;22.14;66.74
80568;BME280;69922;45.656;25.586;2023-07-20T05:26:20;94686.70;;;22.22;66.64
80568;BME280;69922;45.656;25.586;2023-07-20T05:27:24;94687.52;;;22.29;66.57
80568;BME280;69922;45.656;25.586;2023-07-20T05:28:28;94691.45;;;22.35;66.46
80568;BME280;69922;45.656;25.586;2023-07-20T05:29:31;94692.98;;;22.41;66.41
80568;BME280;69922;45.656;25.586;2023-07-20T05:30:37;94690.23;;;22.47;66.29
80568;BME280;69922;45.656;25.586;2023-07-20T05:31:40;94689.58;;;22.53;66.14
80568;BME280;69922;45.656;25.586;2023-07-20T05:32:44;94688.25;;;22.59;65.86
80568;BME280;69922;45.656;25.586;2023-07-20T05:33:51;94688.52;;;22.65;65.76
80568;BME280;69922;45.656;25.586;2023-07-20T05:34:55;94692.02;;;22.71;65.76
80568;BME280;69922;45.656;25.586;2023-07-20T05:35:58;94688.93;;;22.78;65.53
80568;BME280;69922;45.656;25.586;2023-07-20T05:37:02;94688.55;;;22.85;65.17
80568;BME280;69922;45.656;25.586;2023-07-20T05:38:06;94691.59;;;22.93;64.85
80568;BME280;69922;45.656;25.586;2023-07-20T05:39:09;94688.95;;;23.00;64.51
80568;BME280;69922;45.656;25.586;2023-07-20T05:40:16;94691.36;;;23.07;64.42